< < Back
Terminal Aerodrome Forecast


Current Version              Previous Versions:   1  2  3  4  5  6  7  8  9  

Terminal Aerodrome Forecast

915
FTUS44 KMRX 231120
TAFCHA
TAF
KCHA 231120Z 2312/2412 34006KT P6SM SKC
     FM231500 01010G16KT P6SM FEW200
     FM240100 00000KT P6SM SKC=

Latest METAR

471
SAUS80 KWBC 241500 RRA
MTRCHA
METAR KCHA 241453Z 22005KT 10SM SCT250 17/03 A3006 RMK AO2 SLP176
T01720033 53004


USA.gov is the U.S. government's official web portal to all federal, state and local government web resources and services.